GABS

Details ICAO GABS (BKO)
Name Bamako Senou
Region Mali
Timezone Africa/Bamako (UTC+0.0)
Plans Departing 83
Arriving 94
Stats Elevation 1,246 ft / 380 m (AMSL)
Location 12.533544° -7.949943°
Runways 1
Magnetic Variation 4.162° W
Sunrise 2017-12-11 06:44:28 UTC / 2017-12-11 06:44:28 Local
Sunset 2017-12-11 18:08:34 UTC / 2017-12-11 18:08:34 Local
Advertisement - Login to hide

Runways

ID Width Length Bearing (true) Bearing (mag) Surface Threshold Offset Overrun Length
06 148 ft / 45 m 8,888 ft / 2,709 m 56.51° 60.67° Asphalt 0 ft / 0 m 327 ft / 100 m
24 148 ft / 45 m 8,888 ft / 2,709 m 236.51° 240.67° Asphalt 0 ft / 0 m 327 ft / 100 m

Approach Navaids

Runway Type Ident Frequency Range Bearing (true) Bearing (mag) Slope Elevation
06 Localiser IBS 109.50 MHz 18 nm / 33 km 56.53° 60.69° - 1,246 ft / 380 m (AMSL)
06 Glidescope IBS 109.50 MHz 10 nm / 19 km 56.51° 60.67° 3.00° 1,246 ft / 380 m (AMSL)
06 DME IBS 109.50 MHz 18 nm / 33 km - - - 1,214 ft / 370 m (AMSL)

Map

Weather


0- 5 10 15 20 25 30 35+ Temperature / ° C

Clouds and Precipitation
Forecast for 2017-12-11 00:00 UTC. Updated an hour ago

Ground ~20,000 ft ~40,000 ft Winds

METAR

GABS 110030Z 05007KT 8000 NSC 20/02 Q1015 NOSIG

TAF

TAF GABS 102300Z 1100/1206 03006KT 8000 NSC PROB40 TEMPO 1106/1110 4500 DU TEMPO 1108/1115 06016KT BECMG 1115/1116 02005KT

Frequencies

Tower 118.30 MHz BAMAKO TWR
Warning: Do not use this data for real-world aviation or navigation. No guarantee of current accuracy is given.